Kezdőlap
METAR-TAF:

METAR-TAF

Repülőterek :

Kassai repülőtér

Kassa, Szlovákia

földrajzi szélesség: 48-39-47N, földrajzi hosszúság: 021-14-28E, magasság: 232 m

Jelenlegi meteorológiai megfigyelések

A jelentés 24 perccel ezelõtt készült, 21:45 UTC
Északi szél 18 kt széllökések: 28 kt
Hőmérséklet 2°C
Páratartalom 64%
Légköri nyomás 1033 hPa
Látótávolság 10 km, vagy több
felhőtlen 1500 m magasságban, és nincs gomolyfelhõ

METAR: LZKZ 162145Z 01018G28KT CAVOK 02/M04 Q1033

Idő: 23:09 (22:09 UTC)

Előrejelzés

A jelentés 5 órával és 9 perccel ezelõtt készült, 17:00 UTC
Az előrejelzés 16-én 18 óra UTC és 17-én 18 óra UTC között érvényes
Észak-északkeleti szél 13 kt
Látótávolság 10 km, vagy több
felhőtlen 1500 m magasságban, és nincs gomolyfelhõ
16-én 20 óra UTC és 17-én 06 óra UTC között ideiglenes
Észak-északkeleti szél 18 kt széllökések: 30 kt

TAF: LZKZ 161700Z 1618/1718 02013KT CAVOK TEMPO 1620/1706 02018G30KT

Meteorológiai megfigyelések és előrejelzések több, mint 4000 repülőtéren (METAR és TAF jelentéseket).

A térképen piros és sárga pontok jelzik az elérhető meteorológiai állomásokat.

Mozgassa az egeret a pont fölött, hogy megjelenjen az állomás neve.

Azután kattintson az időjárási megfigyelések és előrejelzések megtekintéséhez.

A térkép megváltoztatása: kattintson a fekete keresztel jelölt zöld gombra ráközelítéshez, a vonallal jelölt zöld gombra távolításhoz, vagy a zöld nyilakra a szomszédos térképek eléréséhez.


METAR-TAF: